Terminal Aerodrome Forecast
Issued by NWS

Home | Current Version | Previous Version | Text Only | Print | Product List | Glossary On
Versions: 1 2 3 4 5 6 7 8 9 10 11 12 13 14 15 16 17 18 19 20 21 22 23
000
FTUS43 KLOT 282334
TAFGYY
TAF
KGYY 282334Z 2900/2924 18017G27KT P6SM FEW045 BKN090
     FM290300 20016G25KT 4SM TSRA OVC040CB
      TEMPO 2904/2907 2SM TSRA OVC050CB
     FM290900 21012G20KT P6SM SCT025 OVC070
     FM291800 23014G23KT P6SM BKN050
     FM292300 24012KT P6SM VCTS BKN050CB PROB30 2923/2924 3SM TSRA
      OVC035CB=

USA.gov is the U.S. government's official web portal to all federal, state and local government web resources and services.